Weather at Charles M. Schulz Sonoma County Airport

Public forecast

Using degrees Fahrenheit for public forecast. Weather courtesy of forecast.io.

Current aviation weather report (METAR) for Charles M. Schulz Sonoma County Airport

Retrieved 2022/05/22 21:53 UTC (1 hour ago):

KSTS 222153Z 18010G14KT 10SM CLR 29/06 A2997 RMK AO2 SLP142 T02940061

Aviation forecast (TAF) for Charles M. Schulz Sonoma County Airport

Retrieved 2022/05/22 18:34 UTC (4 hours ago):

TAF KSTS 221732Z 2218/2318 17009KT P6SM SCT250 FM222300 31013G18KT P6SM SCT250 FM230500 VRB04KT P6SM SKC WS005/32030KT FM231500 32010G18KT P6SM SKC